createdAt,value
2019-02-07T00:00:23.430Z,22.07
2019-02-07T00:02:54.859Z,21.07
2019-02-07T00:05:25.832Z,19.40
2019-02-07T00:07:55.823Z,20.60
2019-02-07T00:10:25.856Z,20.07
2019-02-07T00:12:56.337Z,19.63
2019-02-07T00:15:26.367Z,20.33
2019-02-07T00:17:57.554Z,19.17
2019-02-07T00:20:27.595Z,19.13
2019-02-07T00:22:57.563Z,20.37
2019-02-07T00:25:27.671Z,18.07
2019-02-07T00:27:59.674Z,16.87
2019-02-07T00:30:29.723Z,17.47
2019-02-07T00:32:59.617Z,16.37
2019-02-07T00:35:29.609Z,17.47
2019-02-07T00:37:59.515Z,17.63
2019-02-07T00:40:29.908Z,17.17
2019-02-07T00:42:59.818Z,18.90
2019-02-07T00:45:29.880Z,19.67
2019-02-07T00:47:59.716Z,18.00
2019-02-07T00:50:31.135Z,16.93
2019-02-07T00:53:01.235Z,17.87
2019-02-07T00:55:31.253Z,17.27
2019-02-07T00:58:01.169Z,17.53
2019-02-07T01:00:31.717Z,16.57
2019-02-07T01:03:01.623Z,16.20
2019-02-07T01:05:31.730Z,16.37
2019-02-07T01:08:02.028Z,16.13
2019-02-07T01:10:32.426Z,15.60
2019-02-07T01:13:02.300Z,14.23
2019-02-07T01:15:32.322Z,14.53
2019-02-07T01:18:02.222Z,15.03
2019-02-07T01:20:32.222Z,15.23
2019-02-07T01:23:02.123Z,14.87
2019-02-07T01:25:32.125Z,12.87
2019-02-07T01:28:02.031Z,12.37
2019-02-07T01:30:32.060Z,12.73
2019-02-07T01:33:02.055Z,12.03
2019-02-07T01:35:32.051Z,11.80
2019-02-07T01:38:02.139Z,12.13
2019-02-07T01:40:32.044Z,11.53
2019-02-07T01:43:02.150Z,11.47
2019-02-07T01:45:32.039Z,11.50
2019-02-07T01:48:01.997Z,10.40
2019-02-07T01:50:32.400Z,10.83
2019-02-07T01:53:02.325Z,11.17
2019-02-07T01:55:32.236Z,9.73
2019-02-07T01:58:02.218Z,10.13
2019-02-07T02:00:32.109Z,9.40
2019-02-07T02:03:02.069Z,9.13
2019-02-07T02:05:32.332Z,9.00
2019-02-07T02:08:02.330Z,9.70
2019-02-07T02:10:32.347Z,9.77
2019-02-07T02:13:02.315Z,9.17
2019-02-07T02:15:32.429Z,9.27
2019-02-07T02:18:02.405Z,10.40
2019-02-07T02:20:32.563Z,11.23
2019-02-07T02:23:02.548Z,12.03
2019-02-07T02:25:33.668Z,10.53
2019-02-07T02:28:05.727Z,10.37
2019-02-07T02:30:36.406Z,10.60
2019-02-07T02:33:06.564Z,9.87
2019-02-07T02:35:36.556Z,10.50
2019-02-07T02:38:06.435Z,9.23
2019-02-07T02:40:36.417Z,9.90
2019-02-07T02:43:06.340Z,9.77
2019-02-07T02:45:37.898Z,8.87
2019-02-07T02:48:07.972Z,8.93
2019-02-07T02:50:37.944Z,9.80
2019-02-07T02:53:07.840Z,10.27
2019-02-07T02:55:39.397Z,9.30
2019-02-07T02:58:09.294Z,8.53
2019-02-07T03:00:41.554Z,9.17
2019-02-07T03:03:25.332Z,9.10
2019-02-07T03:06:14.265Z,9.90
2019-02-07T03:08:48.617Z,9.50
2019-02-07T03:11:20.182Z,9.47
2019-02-07T03:13:54.668Z,8.87
2019-02-07T03:16:37.223Z,10.00
2019-02-07T03:19:31.283Z,9.80
2019-02-07T03:22:14.931Z,10.10
2019-02-07T03:24:46.740Z,10.43
2019-02-07T03:27:35.977Z,10.87
2019-02-07T03:30:10.709Z,10.57
2019-02-07T03:35:34.575Z,12.27
2019-02-07T03:38:15.147Z,12.13
2019-02-07T03:40:49.678Z,11.57
2019-02-07T03:43:33.165Z,12.93
2019-02-07T03:46:17.719Z,12.70
2019-02-07T03:48:58.219Z,14.50
2019-02-07T03:51:29.707Z,13.53
2019-02-07T03:54:10.338Z,13.53
2019-02-07T03:57:00.402Z,12.40
2019-02-07T04:02:15.359Z,12.13
2019-02-07T04:07:54.405Z,11.43
2019-02-07T04:13:36.260Z,12.63
2019-02-07T04:16:15.401Z,11.57
2019-02-07T04:18:49.473Z,13.00
2019-02-07T04:21:21.061Z,13.73
2019-02-07T04:24:08.976Z,12.60
2019-02-07T04:26:44.639Z,11.77
2019-02-07T04:29:29.421Z,11.63
2019-02-07T04:32:32.670Z,12.37
2019-02-07T04:35:10.224Z,10.80
2019-02-07T04:37:44.333Z,11.13
2019-02-07T04:40:25.113Z,10.10
2019-02-07T04:43:02.317Z,10.93
2019-02-07T04:45:50.265Z,10.27
2019-02-07T04:48:28.103Z,11.00
2019-02-07T04:51:02.562Z,13.37
2019-02-07T04:53:34.132Z,12.07
2019-02-07T04:56:23.187Z,11.90
2019-02-07T04:58:54.741Z,12.47
2019-02-07T05:01:26.222Z,11.77
2019-02-07T05:04:00.796Z,11.60
2019-02-07T05:07:00.863Z,11.50
2019-02-07T05:09:41.050Z,10.93
2019-02-07T05:12:15.558Z,11.07
2019-02-07T05:14:55.688Z,11.30
2019-02-07T05:17:41.585Z,10.17
2019-02-07T05:20:13.185Z,11.67
2019-02-07T05:22:50.691Z,10.93
2019-02-07T05:25:28.379Z,11.60
2019-02-07T05:28:03.963Z,11.50
2019-02-07T05:30:35.522Z,10.57
2019-02-07T05:33:16.036Z,9.20
2019-02-07T05:36:03.784Z,9.87
2019-02-07T05:38:38.070Z,9.00
2019-02-07T05:41:12.642Z,9.30
2019-02-07T05:44:00.922Z,10.03
2019-02-07T05:46:51.151Z,9.87
2019-02-07T05:49:18.587Z,39.07
2019-02-07T05:51:58.941Z,16.87
2019-02-07T05:54:45.765Z,10.30
2019-02-07T06:00:25.909Z,9.00
2019-02-07T06:03:25.705Z,9.10
2019-02-07T06:06:04.131Z,9.37
2019-02-07T06:08:45.056Z,9.57
2019-02-07T06:11:28.838Z,10.13
2019-02-07T06:14:06.617Z,9.70
2019-02-07T06:17:02.014Z,11.00
2019-02-07T06:19:36.733Z,8.80
2019-02-07T06:22:20.376Z,9.97
2019-02-07T06:25:04.227Z,9.77
2019-02-07T06:27:53.282Z,8.70
2019-02-07T06:30:43.251Z,7.77
2019-02-07T06:33:14.718Z,7.57
2019-02-07T06:35:46.434Z,8.03
2019-02-07T06:38:20.751Z,7.90
2019-02-07T06:40:55.331Z,8.00
2019-02-07T06:43:36.304Z,7.53
2019-02-07T06:46:25.444Z,8.13
2019-02-07T06:49:13.285Z,7.30
2019-02-07T06:51:50.729Z,7.03
2019-02-07T06:54:38.459Z,7.60
2019-02-07T06:57:27.888Z,7.50
2019-02-07T07:00:06.257Z,7.20
2019-02-07T07:02:37.848Z,8.27
2019-02-07T07:05:39.911Z,7.47
2019-02-07T07:08:11.519Z,7.03
2019-02-07T07:10:48.779Z,7.77
2019-02-07T07:13:29.876Z,6.47
2019-02-07T07:16:05.436Z,6.40
2019-02-07T07:18:55.566Z,8.07
2019-02-07T07:21:43.673Z,7.17
2019-02-07T07:24:24.238Z,7.13
2019-02-07T07:27:09.523Z,6.07
2019-02-07T07:29:44.531Z,7.45
2019-02-07T07:32:33.123Z,12.30
2019-02-07T07:35:25.587Z,7.47
2019-02-07T07:38:00.278Z,6.42
2019-02-07T07:40:32.401Z,6.75
2019-02-07T07:43:07.587Z,5.92
2019-02-07T07:45:45.699Z,6.62
2019-02-07T07:48:26.898Z,5.55
2019-02-07T07:51:02.386Z,6.08
2019-02-07T07:53:50.714Z,6.53
2019-02-07T07:56:42.087Z,6.35
2019-02-07T07:59:17.319Z,7.20
2019-02-07T08:01:52.458Z,7.28
2019-02-07T08:04:27.280Z,7.37
2019-02-07T08:07:05.208Z,6.37
2019-02-07T08:09:37.245Z,7.70
2019-02-07T08:12:15.322Z,24.40
2019-02-07T08:14:56.649Z,14.38
2019-02-07T08:17:47.658Z,9.68
2019-02-07T08:20:33.345Z,8.05
2019-02-07T08:23:08.549Z,8.15
2019-02-07T08:25:57.453Z,7.87
2019-02-07T08:28:41.565Z,8.20
2019-02-07T08:31:29.195Z,9.08
2019-02-07T08:34:17.751Z,18.48
2019-02-07T08:36:50.920Z,13.18
2019-02-07T08:39:32.225Z,9.20
2019-02-07T08:42:10.468Z,8.35
2019-02-07T08:44:48.682Z,9.20
2019-02-07T08:47:31.053Z,7.90
2019-02-07T08:50:03.163Z,7.37
2019-02-07T08:52:35.256Z,6.92
2019-02-07T08:57:57.182Z,8.08
2019-02-07T09:00:44.730Z,12.65
2019-02-07T09:03:23.383Z,11.78
2019-02-07T09:05:58.749Z,14.28
2019-02-07T09:08:30.829Z,12.63
2019-02-07T09:11:12.039Z,22.25
2019-02-07T09:13:56.302Z,21.93
2019-02-07T09:16:29.524Z,21.45
2019-02-07T09:19:07.389Z,22.37
2019-02-07T09:21:48.524Z,26.60
2019-02-07T09:24:38.692Z,26.95
2019-02-07T09:27:29.858Z,26.95
2019-02-07T09:30:05.003Z,25.30
2019-02-07T09:32:37.168Z,21.52
2019-02-07T09:35:12.258Z,26.80
2019-02-07T09:37:58.692Z,27.15
2019-02-07T09:40:36.675Z,27.37
2019-02-07T09:43:08.847Z,28.90
2019-02-07T09:45:44.117Z,25.20
2019-02-07T09:48:22.096Z,29.25
2019-02-07T09:50:57.210Z,25.52
2019-02-07T09:53:29.349Z,28.57
2019-02-07T09:56:21.521Z,26.07
2019-02-07T09:58:53.695Z,26.57
2019-02-07T10:01:25.833Z,28.52
2019-02-07T10:03:58.043Z,29.15
2019-02-07T10:06:41.556Z,29.10
2019-02-07T10:09:25.505Z,29.52
2019-02-07T10:12:06.504Z,30.90
2019-02-07T10:14:54.578Z,25.27
2019-02-07T10:17:39.829Z,28.02
2019-02-07T10:20:28.712Z,31.27
2019-02-07T10:23:03.822Z,30.85
2019-02-07T10:25:51.541Z,31.17
2019-02-07T10:28:23.649Z,30.95
2019-02-07T10:30:55.761Z,29.90
2019-02-07T10:33:27.838Z,32.05
2019-02-07T10:36:02.060Z,32.40
2019-02-07T10:38:43.582Z,31.82
2019-02-07T10:41:34.237Z,32.83
2019-02-07T10:44:09.539Z,30.82
2019-02-07T10:46:47.917Z,30.70
2019-02-07T10:49:22.844Z,33.67
2019-02-07T10:52:11.405Z,34.13
2019-02-07T10:54:52.500Z,35.92
2019-02-07T10:57:25.658Z,33.13
2019-02-07T11:00:07.171Z,35.23
2019-02-07T11:02:39.912Z,36.88
2019-02-07T11:05:13.674Z,33.43
2019-02-07T11:08:05.932Z,37.28
2019-02-07T11:10:37.411Z,36.67
2019-02-07T11:13:11.717Z,37.98
2019-02-07T11:15:43.186Z,39.93
2019-02-07T11:18:20.911Z,40.70
2019-02-07T11:20:52.399Z,37.37
2019-02-07T11:23:26.549Z,40.00
2019-02-07T11:26:15.708Z,35.33
2019-02-07T11:29:03.950Z,36.40
2019-02-07T11:31:42.036Z,35.95
2019-02-07T11:34:19.373Z,34.90
2019-02-07T11:36:59.065Z,37.03
2019-02-07T11:39:33.381Z,38.30
2019-02-07T11:42:14.138Z,38.20
2019-02-07T11:44:45.796Z,35.78
2019-02-07T11:47:33.644Z,39.03
2019-02-07T11:50:23.922Z,35.20
2019-02-07T11:53:01.479Z,37.67
2019-02-07T11:55:51.434Z,35.00
2019-02-07T11:58:22.977Z,36.13
2019-02-07T12:01:11.256Z,40.95
2019-02-07T12:06:55.954Z,37.47
2019-02-07T12:09:42.748Z,35.13
2019-02-07T12:12:14.901Z,40.98
2019-02-07T12:14:47.351Z,43.33
2019-02-07T12:17:23.090Z,42.58
2019-02-07T12:20:11.277Z,38.00
2019-02-07T12:22:43.990Z,37.95
2019-02-07T12:25:32.297Z,39.88
2019-02-07T12:28:10.581Z,39.85
2019-02-07T12:30:50.899Z,41.02
2019-02-07T12:33:25.799Z,41.23
2019-02-07T12:36:02.429Z,39.80
2019-02-07T12:38:52.685Z,40.23
2019-02-07T12:41:27.210Z,39.53
2019-02-07T12:43:59.348Z,38.38
2019-02-07T12:46:32.545Z,45.05
2019-02-07T12:49:16.327Z,49.03
2019-02-07T12:51:51.388Z,41.70
2019-02-07T12:54:23.556Z,38.05
2019-02-07T12:57:07.908Z,38.38
2019-02-07T12:59:57.034Z,34.50
2019-02-07T13:02:45.951Z,37.63
2019-02-07T13:05:33.696Z,36.65
2019-02-07T13:08:08.193Z,36.30
2019-02-07T13:10:56.362Z,35.10
2019-02-07T13:13:28.432Z,35.03
2019-02-07T13:16:17.829Z,35.75
2019-02-07T13:18:55.176Z,35.20
2019-02-07T13:21:42.438Z,34.48
2019-02-07T13:24:14.565Z,33.18
2019-02-07T13:27:05.723Z,35.30
2019-02-07T13:29:37.808Z,34.92
2019-02-07T13:32:09.910Z,32.75
2019-02-07T13:34:42.034Z,32.80
2019-02-07T13:37:15.239Z,30.08
2019-02-07T13:39:47.556Z,48.40
2019-02-07T13:42:28.791Z,33.50
2019-02-07T13:45:17.377Z,33.15
2019-02-07T13:48:05.805Z,31.65
2019-02-07T13:50:54.391Z,32.33
2019-02-07T13:53:29.712Z,32.78
2019-02-07T13:56:06.298Z,32.50
2019-02-07T13:58:56.683Z,30.00
2019-02-07T14:01:45.388Z,31.70
2019-02-07T14:04:35.713Z,30.87
2019-02-07T14:07:08.209Z,29.60
2019-02-07T14:09:40.334Z,32.55
2019-02-07T14:12:11.819Z,34.30
2019-02-07T14:14:59.407Z,34.70
2019-02-07T14:17:36.155Z,34.77
2019-02-07T14:20:23.154Z,31.60
2019-02-07T14:23:10.091Z,32.67
2019-02-07T14:28:29.375Z,32.53
2019-02-07T14:31:13.355Z,32.73
2019-02-07T14:34:01.193Z,32.28
2019-02-07T14:36:40.008Z,33.23
2019-02-07T14:39:25.262Z,30.40
2019-02-07T14:41:56.850Z,31.87
2019-02-07T14:44:45.003Z,32.90
2019-02-07T14:47:16.091Z,33.87
2019-02-07T14:49:46.573Z,34.10
2019-02-07T14:52:16.588Z,34.20
2019-02-07T14:54:46.483Z,34.97
2019-02-07T14:57:17.557Z,34.83
2019-02-07T14:59:51.353Z,30.70
2019-02-07T15:02:22.219Z,33.13
2019-02-07T15:04:52.264Z,35.60
2019-02-07T15:07:25.213Z,33.97
2019-02-07T15:09:55.199Z,37.00
2019-02-07T15:12:25.107Z,36.03
2019-02-07T15:14:55.514Z,37.10
2019-02-07T15:17:26.446Z,36.73
2019-02-07T15:19:56.448Z,37.33
2019-02-07T15:22:26.348Z,37.13
2019-02-07T15:24:56.353Z,37.47
2019-02-07T15:27:26.354Z,36.03
2019-02-07T15:29:56.664Z,37.17
2019-02-07T15:32:26.864Z,34.93
2019-02-07T15:34:56.906Z,37.50
2019-02-07T15:37:31.527Z,37.83
2019-02-07T15:40:01.531Z,35.53
2019-02-07T15:42:32.930Z,39.73
2019-02-07T15:45:02.925Z,39.63
2019-02-07T15:47:36.390Z,35.83
2019-02-07T15:50:09.513Z,37.57
2019-02-07T15:52:42.174Z,39.67
2019-02-07T15:55:12.473Z,37.27
2019-02-07T15:57:45.799Z,39.10
2019-02-07T16:00:34.364Z,36.13
2019-02-07T16:03:06.624Z,38.53
2019-02-07T16:05:36.769Z,38.33
2019-02-07T16:08:06.676Z,41.60
2019-02-07T16:10:36.669Z,38.73
2019-02-07T16:13:06.570Z,39.27
2019-02-07T16:15:36.580Z,41.20
2019-02-07T16:18:06.486Z,38.63
2019-02-07T16:20:36.489Z,39.90
2019-02-07T16:23:06.954Z,37.05
2019-02-07T16:25:36.961Z,39.17
2019-02-07T16:28:06.959Z,38.43
2019-02-07T16:30:36.962Z,40.40
2019-02-07T16:33:07.266Z,39.20
2019-02-07T16:35:38.217Z,38.13
2019-02-07T16:38:08.450Z,38.60
2019-02-07T16:40:38.457Z,39.10
2019-02-07T16:43:08.354Z,37.80
2019-02-07T16:45:38.369Z,40.33
2019-02-07T16:48:08.361Z,37.93
2019-02-07T16:50:38.376Z,39.50
2019-02-07T16:53:08.389Z,37.37
2019-02-07T16:55:38.400Z,37.73
2019-02-07T16:58:08.288Z,38.87
2019-02-07T17:00:38.786Z,39.60
2019-02-07T17:03:08.781Z,37.63
2019-02-07T17:05:39.416Z,40.47
2019-02-07T17:08:09.293Z,38.73
2019-02-07T17:10:40.789Z,38.07
2019-02-07T17:13:12.080Z,38.50
2019-02-07T17:15:42.102Z,40.53
2019-02-07T17:18:11.982Z,37.23
2019-02-07T17:20:41.986Z,38.73
2019-02-07T17:23:11.894Z,37.70
2019-02-07T17:25:41.985Z,38.83
2019-02-07T17:28:12.200Z,36.87
2019-02-07T17:30:42.210Z,39.47
2019-02-07T17:33:12.121Z,38.80
2019-02-07T17:35:43.187Z,38.20
2019-02-07T17:38:13.259Z,37.27
2019-02-07T17:40:44.276Z,35.77
2019-02-07T17:43:14.626Z,37.17
2019-02-07T17:45:44.903Z,39.03
2019-02-07T17:48:14.994Z,38.50
2019-02-07T17:50:45.146Z,39.40
2019-02-07T17:53:16.037Z,38.30
2019-02-07T17:56:09.244Z,48.40
2019-02-07T17:58:39.523Z,44.90
2019-02-07T18:01:12.568Z,39.63
2019-02-07T18:03:42.564Z,40.30
2019-02-07T18:06:13.945Z,38.57
2019-02-07T18:08:43.951Z,55.93
2019-02-07T18:11:13.936Z,45.37
2019-02-07T18:13:43.833Z,41.40
2019-02-07T18:16:17.714Z,42.33
2019-02-07T18:18:47.627Z,39.60
2019-02-07T18:21:17.749Z,39.37
2019-02-07T18:23:47.643Z,49.73
2019-02-07T18:26:18.787Z,88.67
2019-02-07T18:28:48.682Z,64.63
2019-02-07T18:31:18.693Z,52.23
2019-02-07T18:33:48.585Z,44.27
2019-02-07T18:36:20.784Z,40.03
2019-02-07T18:38:50.697Z,39.83
2019-02-07T18:41:33.235Z,40.47
2019-02-07T18:44:05.592Z,37.73
2019-02-07T18:46:35.655Z,38.27
2019-02-07T18:49:05.548Z,43.20
2019-02-07T18:51:45.216Z,40.43
2019-02-07T18:54:06.968Z,39.97
2019-02-07T18:56:38.042Z,39.50
2019-02-07T18:59:08.335Z,41.03
2019-02-07T19:01:38.686Z,41.53
2019-02-07T19:04:10.669Z,40.97
2019-02-07T19:09:46.393Z,40.27
2019-02-07T19:12:16.922Z,45.13
2019-02-07T19:14:47.143Z,43.07
2019-02-07T19:17:26.060Z,42.23
2019-02-07T19:19:56.626Z,45.90
2019-02-07T19:22:27.064Z,57.70
2019-02-07T19:24:57.421Z,46.73
2019-02-07T19:27:28.998Z,44.43
2019-02-07T19:29:59.371Z,42.23
2019-02-07T19:32:29.779Z,42.57
2019-02-07T19:35:00.036Z,44.50
2019-02-07T19:37:36.330Z,44.67
2019-02-07T19:40:12.288Z,47.93
2019-02-07T19:42:45.160Z,44.47
2019-02-07T19:45:39.634Z,45.23
2019-02-07T19:48:10.131Z,41.77
2019-02-07T19:50:40.435Z,42.80
2019-02-07T19:53:10.867Z,41.57
2019-02-07T19:55:41.639Z,41.83
2019-02-07T19:58:12.192Z,43.17
2019-02-07T20:00:42.735Z,40.00
2019-02-07T20:03:22.843Z,42.87
2019-02-07T20:05:53.353Z,41.67
2019-02-07T20:08:23.824Z,49.83
2019-02-07T20:10:53.951Z,51.30
2019-02-07T20:13:24.310Z,45.50
2019-02-07T20:15:54.507Z,45.00
2019-02-07T20:18:24.924Z,42.77
2019-02-07T20:20:55.798Z,42.97
2019-02-07T20:23:26.032Z,41.37
2019-02-07T20:25:57.250Z,44.07
2019-02-07T20:28:27.390Z,42.73
2019-02-07T20:30:58.800Z,40.53
2019-02-07T20:33:28.932Z,44.37
2019-02-07T20:36:01.098Z,42.00
2019-02-07T20:38:31.390Z,41.63
2019-02-07T20:41:01.424Z,44.80
2019-02-07T20:43:32.858Z,42.83
2019-02-07T20:46:03.754Z,44.73
2019-02-07T20:48:34.218Z,42.40
2019-02-07T20:51:04.484Z,42.27
2019-02-07T20:53:34.827Z,42.47
2019-02-07T20:56:07.968Z,42.13
2019-02-07T20:58:59.697Z,44.70
2019-02-07T21:01:29.646Z,44.77
2019-02-07T21:04:00.029Z,41.80
2019-02-07T21:06:30.654Z,43.63
2019-02-07T21:09:01.203Z,41.43
2019-02-07T21:11:34.759Z,42.13
2019-02-07T21:14:05.369Z,44.23
2019-02-07T21:16:36.620Z,41.70
2019-02-07T21:19:06.619Z,42.30
2019-02-07T21:21:36.631Z,43.40
2019-02-07T21:24:06.643Z,40.80
2019-02-07T21:26:39.797Z,45.37
2019-02-07T21:29:10.223Z,42.50
2019-02-07T21:31:40.630Z,43.90
2019-02-07T21:34:10.744Z,42.57
2019-02-07T21:36:47.642Z,41.87
2019-02-07T21:39:17.791Z,44.37
2019-02-07T21:41:47.807Z,47.60
2019-02-07T21:44:19.135Z,51.60
2019-02-07T21:46:51.281Z,45.87
2019-02-07T21:49:21.389Z,47.13
2019-02-07T21:51:51.506Z,44.97
2019-02-07T21:54:21.496Z,42.47
2019-02-07T21:56:52.640Z,46.27
2019-02-07T21:59:23.082Z,47.00
2019-02-07T22:01:53.163Z,45.70
2019-02-07T22:04:23.299Z,42.67
2019-02-07T22:06:55.337Z,45.17
2019-02-07T22:09:25.559Z,46.53
2019-02-07T22:11:55.559Z,45.87
2019-02-07T22:14:25.659Z,44.73
2019-02-07T22:16:56.729Z,42.23
2019-02-07T22:19:26.809Z,62.23
2019-02-07T22:21:56.738Z,59.13
2019-02-07T22:24:29.149Z,49.60
2019-02-07T22:27:00.484Z,44.47
2019-02-07T22:29:30.463Z,42.77
2019-02-07T22:32:00.362Z,43.47
2019-02-07T22:34:30.365Z,43.63
2019-02-07T22:37:01.391Z,43.77
2019-02-07T22:39:31.527Z,43.43
2019-02-07T22:42:01.631Z,43.13
2019-02-07T22:44:32.741Z,43.03
2019-02-07T22:47:05.418Z,42.07
2019-02-07T22:49:35.411Z,46.40
2019-02-07T22:52:05.319Z,44.73
2019-02-07T22:54:35.312Z,44.63
2019-02-07T22:57:06.251Z,44.77
2019-02-07T23:02:42.735Z,54.80
2019-02-07T23:05:12.742Z,43.10
2019-02-07T23:07:43.679Z,44.27
2019-02-07T23:10:13.727Z,43.60
2019-02-07T23:12:43.626Z,42.77
2019-02-07T23:15:13.614Z,41.10
2019-02-07T23:17:44.587Z,42.90
2019-02-07T23:20:14.801Z,41.33
2019-02-07T23:22:44.689Z,42.60
2019-02-07T23:25:14.720Z,39.83
2019-02-07T23:27:45.687Z,42.87
2019-02-07T23:30:18.257Z,42.23
2019-02-07T23:32:48.151Z,41.03
2019-02-07T23:35:18.170Z,40.27
2019-02-07T23:37:49.121Z,41.97
2019-02-07T23:40:21.466Z,41.07
2019-02-07T23:42:51.371Z,39.93
2019-02-07T23:45:25.546Z,40.30
2019-02-07T23:47:57.507Z,38.80
2019-02-07T23:50:27.510Z,40.47
2019-02-07T23:52:57.431Z,41.13
2019-02-07T23:55:27.433Z,59.30
2019-02-07T23:57:58.698Z,71.53
